createdAt,value
2023-04-06T00:00:50.636Z,101626.16
2023-04-06T00:03:17.889Z,101535.25
2023-04-06T00:05:44.628Z,101544.75
2023-04-06T00:08:11.582Z,101612.34
2023-04-06T00:10:38.176Z,101608.31
2023-04-06T00:13:04.995Z,101625.81
2023-04-06T00:15:31.720Z,101545.06
2023-04-06T00:21:54.263Z,101591.41
2023-04-06T00:24:21.062Z,101592.97
2023-04-06T00:26:47.678Z,101593.41
2023-04-06T00:29:14.430Z,101587.19
2023-04-06T00:31:41.133Z,101506.84
2023-04-06T00:34:07.830Z,101598.94
2023-04-06T00:36:34.539Z,101588.97
2023-04-06T00:39:01.454Z,101595.03
2023-04-06T00:41:28.218Z,101584.47
2023-04-06T00:43:55.750Z,101614.09
2023-04-06T00:46:22.438Z,101597.44
2023-04-06T00:48:49.121Z,101516.13
2023-04-06T00:51:15.883Z,101580.03
2023-04-06T00:53:42.583Z,101515.94
2023-04-06T00:56:10.976Z,101591.06
2023-04-06T00:58:48.513Z,101500.38
2023-04-06T01:01:15.385Z,101571.41
2023-04-06T01:03:43.324Z,101598.91
2023-04-06T01:06:12.626Z,101566.25
2023-04-06T01:08:41.162Z,101578.72
2023-04-06T01:11:18.823Z,101480.50
2023-04-06T01:13:47.249Z,101537.03
2023-04-06T01:16:22.254Z,101585.88
2023-04-06T01:19:02.796Z,101592.91
2023-04-06T01:21:32.464Z,101460.41
2023-04-06T01:24:22.869Z,101542.84
2023-04-06T01:27:01.800Z,101406.50
2023-04-06T01:29:35.733Z,101436.41
2023-04-06T01:32:05.568Z,101551.91
2023-04-06T01:34:37.623Z,101463.13
2023-04-06T01:37:06.138Z,101542.84
2023-04-06T01:39:32.957Z,101547.28
2023-04-06T01:42:02.221Z,101510.72
2023-04-06T01:44:31.521Z,101511.28
2023-04-06T01:47:07.419Z,101554.66
2023-04-06T01:49:34.772Z,101548.00
2023-04-06T01:52:01.717Z,101544.00
2023-04-06T01:54:28.627Z,101541.59
2023-04-06T01:57:13.892Z,101536.59
2023-04-06T01:59:47.901Z,101506.63
2023-04-06T02:02:40.327Z,101552.63
2023-04-06T02:05:13.370Z,101504.28
2023-04-06T02:07:41.118Z,101498.97
2023-04-06T02:10:16.250Z,101527.44
2023-04-06T02:12:44.575Z,101511.91
2023-04-06T02:15:16.331Z,101515.16
2023-04-06T02:17:43.707Z,101531.91
2023-04-06T02:20:10.700Z,101505.53
2023-04-06T02:22:37.346Z,101494.97
2023-04-06T02:25:04.265Z,101421.13
2023-04-06T02:27:31.098Z,101519.38
2023-04-06T02:29:58.639Z,101504.56
2023-04-06T02:32:25.645Z,101419.50
2023-04-06T02:34:53.249Z,101496.78
2023-04-06T02:37:21.597Z,101500.75
2023-04-06T02:39:48.307Z,101515.00
2023-04-06T02:42:16.333Z,101449.44
2023-04-06T02:44:44.698Z,101409.19
2023-04-06T02:47:11.872Z,101510.38
2023-04-06T02:49:41.173Z,101432.28
2023-04-06T02:52:08.216Z,101474.13
2023-04-06T02:54:36.412Z,101496.16
2023-04-06T02:57:04.166Z,101478.44
2023-04-06T02:59:37.955Z,101487.81
2023-04-06T03:02:27.483Z,101417.94
2023-04-06T03:05:04.352Z,101396.88
2023-04-06T03:07:35.734Z,101460.38
2023-04-06T03:10:02.465Z,101448.25
2023-04-06T03:12:31.507Z,101375.53
2023-04-06T03:15:16.524Z,101387.34
2023-04-06T03:17:48.295Z,101459.09
2023-04-06T03:20:30.560Z,101446.69
2023-04-06T03:22:57.326Z,101333.91
2023-04-06T03:25:27.911Z,101474.31
2023-04-06T03:27:59.321Z,101472.59
2023-04-06T03:30:27.533Z,101384.25
2023-04-06T03:32:54.271Z,101438.41
2023-04-06T03:35:23.278Z,101378.34
2023-04-06T03:37:50.631Z,101470.28
2023-04-06T03:40:17.582Z,101467.31
2023-04-06T03:42:44.284Z,101463.97
2023-04-06T03:45:14.957Z,101442.06
2023-04-06T03:47:47.126Z,101476.50
2023-04-06T03:50:14.405Z,101467.97
2023-04-06T03:52:41.312Z,101424.25
2023-04-06T03:55:08.748Z,101460.25
2023-04-06T03:57:36.799Z,101345.13
2023-04-06T04:00:03.809Z,101432.69
2023-04-06T04:02:39.536Z,101439.59
2023-04-06T04:05:06.771Z,101357.16
2023-04-06T04:07:33.334Z,101371.88
2023-04-06T04:10:00.693Z,101414.22
2023-04-06T04:12:27.794Z,101362.66
2023-04-06T04:14:54.444Z,101372.75
2023-04-06T04:17:23.075Z,101469.38
2023-04-06T04:19:49.741Z,101447.81
2023-04-06T04:22:16.834Z,101438.88
2023-04-06T04:24:44.211Z,101439.94
2023-04-06T04:27:11.021Z,101374.47
2023-04-06T04:29:39.018Z,101439.34
2023-04-06T04:32:09.013Z,101432.44
2023-04-06T04:34:36.504Z,101433.94
2023-04-06T04:37:05.544Z,101376.25
2023-04-06T04:39:48.051Z,101470.84
2023-04-06T04:42:15.340Z,101450.91
2023-04-06T04:44:47.229Z,101476.75
2023-04-06T04:47:18.214Z,101448.50
2023-04-06T04:49:46.789Z,101457.50
2023-04-06T04:52:19.012Z,101365.31
2023-04-06T04:54:57.253Z,101462.44
2023-04-06T04:57:27.932Z,101460.56
2023-04-06T04:59:55.533Z,101412.22
2023-04-06T05:02:24.171Z,101363.72
2023-04-06T05:05:17.065Z,101448.13
2023-04-06T05:07:44.023Z,101452.47
2023-04-06T05:10:18.674Z,101458.78
2023-04-06T05:12:58.852Z,101368.00
2023-04-06T05:15:28.708Z,101469.94
2023-04-06T05:18:02.318Z,101440.41
2023-04-06T05:20:33.198Z,101420.06
2023-04-06T05:23:00.412Z,101363.47
2023-04-06T05:25:27.614Z,101465.78
2023-04-06T05:27:57.587Z,101361.53
2023-04-06T05:30:31.463Z,101324.84
2023-04-06T05:32:59.909Z,101351.66
2023-04-06T05:35:32.374Z,101435.03
2023-04-06T05:38:09.451Z,101430.66
2023-04-06T05:40:36.657Z,101458.84
2023-04-06T05:43:03.444Z,101454.56
2023-04-06T05:45:31.157Z,101440.88
2023-04-06T05:47:58.782Z,101419.63
2023-04-06T05:50:29.679Z,101391.03
2023-04-06T05:52:57.468Z,101351.69
2023-04-06T05:55:29.332Z,101449.31
2023-04-06T05:58:08.232Z,101437.13
2023-04-06T06:00:35.413Z,101433.66
2023-04-06T06:03:06.975Z,101432.59
2023-04-06T06:05:35.810Z,101357.81
2023-04-06T06:08:11.197Z,101416.03
2023-04-06T06:10:39.401Z,101350.03
2023-04-06T06:13:09.186Z,101428.06
2023-04-06T06:15:36.144Z,101418.50
2023-04-06T06:18:03.144Z,101441.91
2023-04-06T06:20:30.743Z,101358.50
2023-04-06T06:23:01.588Z,101434.16
2023-04-06T06:25:28.287Z,101407.53
2023-04-06T06:27:55.251Z,101412.16
2023-04-06T06:30:23.450Z,101391.13
2023-04-06T06:32:51.645Z,101418.69
2023-04-06T06:35:19.544Z,101432.78
2023-04-06T06:37:48.012Z,101303.00
2023-04-06T06:40:19.002Z,101442.22
2023-04-06T06:42:47.631Z,101430.81
2023-04-06T06:45:34.589Z,101418.97
2023-04-06T06:48:01.359Z,101345.09
2023-04-06T06:50:28.533Z,101342.84
2023-04-06T06:52:55.658Z,101424.06
2023-04-06T06:55:22.353Z,101426.75
2023-04-06T06:57:49.724Z,101348.66
2023-04-06T07:00:16.709Z,101357.44
2023-04-06T07:02:46.065Z,101400.97
2023-04-06T07:05:26.235Z,101413.34
2023-04-06T07:07:56.410Z,101421.69
2023-04-06T07:10:23.269Z,101413.72
2023-04-06T07:12:50.108Z,101422.97
2023-04-06T07:15:18.442Z,101342.66
2023-04-06T07:17:48.257Z,101414.97
2023-04-06T07:20:15.666Z,101413.66
2023-04-06T07:22:44.522Z,101399.84
2023-04-06T07:25:11.403Z,101333.22
2023-04-06T07:27:38.071Z,101338.69
2023-04-06T07:30:05.522Z,101423.44
2023-04-06T07:32:32.362Z,101357.63
2023-04-06T07:34:59.379Z,101403.56
2023-04-06T07:37:26.175Z,101423.72
2023-04-06T07:39:53.240Z,101412.34
2023-04-06T07:42:19.966Z,101334.63
2023-04-06T07:44:46.893Z,101418.44
2023-04-06T07:47:13.550Z,101394.59
2023-04-06T07:49:40.284Z,101333.94
2023-04-06T07:52:07.139Z,101384.25
2023-04-06T07:54:34.073Z,101403.16
2023-04-06T07:57:00.884Z,101365.16
2023-04-06T07:59:27.575Z,101405.41
2023-04-06T08:01:54.287Z,101365.69
2023-04-06T08:04:21.510Z,101406.94
2023-04-06T08:06:48.182Z,101309.94
2023-04-06T08:09:14.852Z,101309.78
2023-04-06T08:14:44.387Z,101394.28
2023-04-06T08:17:11.369Z,101401.75
2023-04-06T08:19:38.632Z,101401.03
2023-04-06T08:22:06.724Z,101389.44
2023-04-06T08:24:33.462Z,101395.09
2023-04-06T08:27:00.201Z,101345.16
2023-04-06T08:29:26.862Z,101416.97
2023-04-06T08:31:53.496Z,101371.66
2023-04-06T08:34:20.181Z,101380.22
2023-04-06T08:36:47.738Z,101313.28
2023-04-06T08:39:14.438Z,101402.78
2023-04-06T08:41:45.012Z,101389.63
2023-04-06T08:44:12.546Z,101402.50
2023-04-06T08:46:39.232Z,101341.59
2023-04-06T08:49:07.845Z,101394.53
2023-04-06T08:51:38.328Z,101314.56
2023-04-06T08:54:06.156Z,101389.06
2023-04-06T08:56:32.951Z,101369.50
2023-04-06T08:59:00.125Z,101391.25
2023-04-06T09:01:28.445Z,101386.78
2023-04-06T09:04:00.197Z,101322.69
2023-04-06T09:06:31.879Z,101334.25
2023-04-06T09:08:59.048Z,101380.16
2023-04-06T09:11:26.120Z,101338.25
2023-04-06T09:13:55.213Z,101354.75
2023-04-06T09:16:22.830Z,101321.72
2023-04-06T09:18:50.622Z,101330.72
2023-04-06T09:21:19.383Z,101384.66
2023-04-06T09:23:46.288Z,101364.28
2023-04-06T09:26:18.024Z,101398.47
2023-04-06T09:28:48.673Z,101390.50
2023-04-06T09:31:17.079Z,101394.06
2023-04-06T09:33:46.154Z,101402.97
2023-04-06T09:36:13.181Z,101383.16
2023-04-06T09:38:51.762Z,101373.22
2023-04-06T09:41:29.049Z,101323.09
2023-04-06T09:44:06.222Z,101391.03
2023-04-06T09:46:58.891Z,101401.81
2023-04-06T09:49:31.956Z,101379.53
2023-04-06T09:52:01.237Z,101389.34
2023-04-06T09:54:30.489Z,101397.38
2023-04-06T09:57:04.503Z,101361.53
2023-04-06T09:59:38.909Z,101396.22
2023-04-06T10:02:09.397Z,101389.84
2023-04-06T10:04:57.688Z,101383.69
2023-04-06T10:07:24.576Z,101320.19
2023-04-06T10:09:53.254Z,101394.50
2023-04-06T10:12:20.431Z,101387.38
2023-04-06T10:14:47.652Z,101366.00
2023-04-06T10:17:14.192Z,101367.78
2023-04-06T10:20:04.990Z,101398.16
2023-04-06T10:22:46.756Z,101370.50
2023-04-06T10:25:13.581Z,101363.34
2023-04-06T10:27:40.275Z,101382.25
2023-04-06T10:30:07.862Z,101390.34
2023-04-06T10:32:36.783Z,101404.75
2023-04-06T10:35:11.102Z,101384.25
2023-04-06T10:38:02.167Z,101406.56
2023-04-06T10:40:34.721Z,101384.25
2023-04-06T10:43:11.348Z,101404.91
2023-04-06T10:45:41.123Z,101374.56
2023-04-06T10:48:15.976Z,101322.75
2023-04-06T10:50:49.619Z,101389.69
2023-04-06T10:53:27.207Z,101322.69
2023-04-06T10:55:57.846Z,101381.69
2023-04-06T10:58:28.563Z,101360.28
2023-04-06T11:00:56.678Z,101343.31
2023-04-06T11:03:24.079Z,101349.56
2023-04-06T11:05:52.292Z,101391.53
2023-04-06T11:08:32.427Z,101386.13
2023-04-06T11:11:27.509Z,101394.16
2023-04-06T11:13:56.089Z,101393.19
2023-04-06T11:16:31.490Z,101370.88
2023-04-06T11:19:09.567Z,101201.97
2023-04-06T11:21:37.819Z,101384.03
2023-04-06T11:24:12.018Z,101377.81
2023-04-06T11:26:42.873Z,101393.00
2023-04-06T11:29:09.985Z,101357.00
2023-04-06T11:31:45.590Z,101350.47
2023-04-06T11:34:24.741Z,101374.50
2023-04-06T11:37:17.872Z,101395.59
2023-04-06T11:39:53.324Z,101397.28
2023-04-06T11:42:28.823Z,101305.91
2023-04-06T11:44:59.642Z,101348.66
2023-04-06T11:47:38.587Z,101382.19
2023-04-06T11:50:10.754Z,101393.47
2023-04-06T11:52:39.004Z,101370.69
2023-04-06T11:55:37.992Z,101394.59
2023-04-06T11:58:04.914Z,101358.16
2023-04-06T12:00:35.455Z,101371.13
2023-04-06T12:03:03.518Z,101350.25
2023-04-06T12:05:33.245Z,101306.00
2023-04-06T12:08:03.791Z,101288.84
2023-04-06T12:10:31.106Z,101369.50
2023-04-06T12:12:57.849Z,101368.72
2023-04-06T12:15:24.634Z,101374.91
2023-04-06T12:17:51.369Z,101360.31
2023-04-06T12:20:26.387Z,101374.69
2023-04-06T12:22:54.303Z,101381.78
2023-04-06T12:25:21.425Z,101385.31
2023-04-06T12:27:48.365Z,101361.13
2023-04-06T12:30:15.946Z,101389.28
2023-04-06T12:32:42.625Z,101373.84
2023-04-06T12:35:10.617Z,101368.88
2023-04-06T12:37:37.820Z,101350.97
2023-04-06T12:40:05.245Z,101357.78
2023-04-06T12:42:32.187Z,101369.47
2023-04-06T12:44:58.896Z,101348.69
2023-04-06T12:47:27.410Z,101276.16
2023-04-06T12:49:55.918Z,101354.63
2023-04-06T12:52:22.622Z,101343.69
2023-04-06T12:54:51.162Z,101343.13
2023-04-06T12:57:18.244Z,101326.06
2023-04-06T12:59:45.629Z,101366.34
2023-04-06T13:02:12.982Z,101324.97
2023-04-06T13:04:39.994Z,101312.47
2023-04-06T13:07:07.046Z,101350.22
2023-04-06T13:09:33.800Z,101323.22
2023-04-06T13:12:00.543Z,101346.50
2023-04-06T13:14:27.303Z,101312.25
2023-04-06T13:16:54.158Z,101313.00
2023-04-06T13:19:20.991Z,101330.16
2023-04-06T13:21:47.863Z,101320.91
2023-04-06T13:24:16.435Z,101248.41
2023-04-06T13:26:44.257Z,101313.88
2023-04-06T13:29:10.926Z,101320.91
2023-04-06T13:31:37.746Z,101260.94
2023-04-06T13:34:04.462Z,101258.09
2023-04-06T13:36:32.613Z,101313.81
2023-04-06T13:38:59.788Z,101283.56
2023-04-06T13:41:27.360Z,101311.34
2023-04-06T13:43:54.019Z,101249.22
2023-04-06T13:46:21.802Z,101301.94
2023-04-06T13:48:48.961Z,101310.69
2023-04-06T13:51:16.311Z,101261.53
2023-04-06T13:53:43.165Z,101303.56
2023-04-06T13:56:10.324Z,101291.84
2023-04-06T13:58:37.228Z,101240.75
2023-04-06T14:01:08.735Z,101292.06
2023-04-06T14:03:36.628Z,101222.66
2023-04-06T14:06:20.868Z,101298.19
2023-04-06T14:08:57.869Z,101226.59
2023-04-06T14:11:24.517Z,101270.78
2023-04-06T14:13:51.159Z,101258.44
2023-04-06T14:16:20.495Z,101289.88
2023-04-06T14:18:47.414Z,101272.19
2023-04-06T14:21:13.960Z,101283.91
2023-04-06T14:23:40.952Z,101256.03
2023-04-06T14:26:09.331Z,101270.16
2023-04-06T14:28:36.986Z,101287.78
2023-04-06T14:31:11.540Z,101264.34
2023-04-06T14:33:38.112Z,101198.56
2023-04-06T14:36:05.911Z,101118.59
2023-04-06T14:38:33.314Z,101253.06
2023-04-06T14:40:59.982Z,101258.09
2023-04-06T14:43:27.057Z,101252.56
2023-04-06T14:45:54.108Z,101271.44
2023-04-06T14:48:20.891Z,101185.41
2023-04-06T14:50:54.513Z,101273.72
2023-04-06T14:53:21.557Z,101261.25
2023-04-06T14:55:48.378Z,101257.56
2023-04-06T14:58:15.342Z,101227.28
2023-04-06T15:00:42.266Z,101243.34
2023-04-06T15:03:09.422Z,101194.06
2023-04-06T15:05:36.484Z,101233.53
2023-04-06T15:08:03.303Z,101229.19
2023-04-06T15:10:32.920Z,101256.78
2023-04-06T15:13:00.372Z,101249.56
2023-04-06T15:15:39.643Z,101239.69
2023-04-06T15:18:10.462Z,101246.91
2023-04-06T15:20:37.721Z,101223.72
2023-04-06T15:23:05.246Z,101213.84
2023-04-06T15:25:32.094Z,101240.81
2023-04-06T15:28:00.333Z,101242.47
2023-04-06T15:30:28.346Z,101206.66
2023-04-06T15:33:02.362Z,101255.69
2023-04-06T15:35:30.091Z,101220.97
2023-04-06T15:37:57.888Z,101139.38
2023-04-06T15:40:25.472Z,101247.00
2023-04-06T15:42:52.421Z,101224.81
2023-04-06T15:45:19.258Z,101230.13
2023-04-06T15:47:46.526Z,101212.31
2023-04-06T15:50:14.230Z,101216.75
2023-04-06T15:52:41.308Z,101204.41
2023-04-06T15:55:09.270Z,101209.00
2023-04-06T15:57:36.117Z,101208.06
2023-04-06T16:00:05.023Z,101183.75
2023-04-06T16:02:36.240Z,101187.53
2023-04-06T16:05:04.179Z,101149.09
2023-04-06T16:10:17.285Z,101178.47
2023-04-06T16:12:43.943Z,101158.06
2023-04-06T16:15:36.366Z,101065.00
2023-04-06T16:18:31.424Z,101233.25
2023-04-06T16:20:59.645Z,101199.44
2023-04-06T16:23:27.208Z,101199.44
2023-04-06T16:25:54.928Z,101179.66
2023-04-06T16:28:23.224Z,101194.81
2023-04-06T16:30:49.888Z,101207.19
2023-04-06T16:33:19.139Z,101179.31
2023-04-06T16:35:46.865Z,101193.66
2023-04-06T16:38:14.433Z,101218.72
2023-04-06T16:40:41.095Z,101196.41
2023-04-06T16:43:09.905Z,101192.91
2023-04-06T16:45:37.862Z,101195.78
2023-04-06T16:48:04.741Z,101154.38
2023-04-06T16:50:31.468Z,101164.22
2023-04-06T16:52:58.534Z,101185.41
2023-04-06T16:55:25.399Z,101191.97
2023-04-06T16:57:55.834Z,101123.84
2023-04-06T17:00:22.849Z,101185.03
2023-04-06T17:02:49.732Z,101161.56
2023-04-06T17:05:20.654Z,101191.16
2023-04-06T17:07:47.491Z,101137.22
2023-04-06T17:10:14.136Z,101136.44
2023-04-06T17:12:40.847Z,101158.88
2023-04-06T17:15:08.224Z,101188.47
2023-04-06T17:17:34.923Z,101182.34
2023-04-06T17:20:01.663Z,101166.91
2023-04-06T17:22:28.307Z,101176.09
2023-04-06T17:24:55.290Z,101154.38
2023-04-06T17:27:23.567Z,101124.88
2023-04-06T17:29:50.596Z,101169.81
2023-04-06T17:32:19.457Z,101169.75
2023-04-06T17:34:46.116Z,101106.97
2023-04-06T17:37:12.781Z,101157.16
2023-04-06T17:39:39.420Z,101175.81
2023-04-06T17:42:06.188Z,101164.34
2023-04-06T17:44:33.422Z,101141.06
2023-04-06T17:47:00.378Z,101180.56
2023-04-06T17:49:26.965Z,101077.28
2023-04-06T17:51:53.582Z,101121.22
2023-04-06T17:54:20.151Z,101086.59
2023-04-06T17:56:49.082Z,101178.78
2023-04-06T17:59:15.670Z,101163.44
2023-04-06T18:01:42.431Z,101186.00
2023-04-06T18:04:09.272Z,101103.19
2023-04-06T18:06:36.921Z,101161.56
2023-04-06T18:09:03.833Z,101179.53
2023-04-06T18:11:31.681Z,101044.25
2023-04-06T18:13:59.546Z,101149.09
2023-04-06T18:16:26.511Z,101171.34
2023-04-06T18:18:53.172Z,101167.84
2023-04-06T18:21:19.797Z,101157.84
2023-04-06T18:23:46.601Z,101154.09
2023-04-06T18:26:18.483Z,101164.97
2023-04-06T18:28:45.719Z,101166.94
2023-04-06T18:31:12.393Z,101150.81
2023-04-06T18:33:39.182Z,101184.97
2023-04-06T18:36:06.221Z,101162.63
2023-04-06T18:38:32.854Z,101174.13
2023-04-06T18:40:59.502Z,101156.44
2023-04-06T18:43:26.239Z,101172.59
2023-04-06T18:45:53.871Z,101175.09
2023-04-06T18:48:20.544Z,101162.50
2023-04-06T18:51:01.881Z,101158.91
2023-04-06T18:53:28.907Z,101151.97
2023-04-06T18:55:59.360Z,101003.09
2023-04-06T18:58:26.626Z,101170.78
2023-04-06T19:00:54.241Z,101167.38
2023-04-06T19:03:22.150Z,101152.88
2023-04-06T19:05:49.400Z,101181.69
2023-04-06T19:08:16.356Z,101150.66
2023-04-06T19:10:42.938Z,101151.50
2023-04-06T19:13:09.662Z,101180.06
2023-04-06T19:15:36.373Z,101183.47
2023-04-06T19:18:03.362Z,101106.25
2023-04-06T19:20:33.999Z,101171.00
2023-04-06T19:23:00.957Z,101180.75
2023-04-06T19:25:27.608Z,101176.97
2023-04-06T19:27:54.478Z,101184.41
2023-04-06T19:30:21.249Z,101086.84
2023-04-06T19:32:47.911Z,101149.59
2023-04-06T19:35:14.583Z,101177.38
2023-04-06T19:37:43.397Z,101185.34
2023-04-06T19:40:10.661Z,101164.00
2023-04-06T19:42:38.795Z,101174.00
2023-04-06T19:45:06.546Z,101103.09
2023-04-06T19:47:35.217Z,101159.78
2023-04-06T19:50:03.743Z,101164.28
2023-04-06T19:52:31.419Z,101159.66
2023-04-06T19:54:59.277Z,101157.09
2023-04-06T19:57:26.242Z,101174.00
2023-04-06T19:59:56.350Z,101115.69
2023-04-06T20:02:23.040Z,101167.78
2023-04-06T20:04:49.831Z,101174.84
2023-04-06T20:07:16.540Z,101173.91
2023-04-06T20:09:43.203Z,101167.69
2023-04-06T20:12:10.313Z,101088.91
2023-04-06T20:14:36.969Z,101171.44
2023-04-06T20:17:03.685Z,101181.50
2023-04-06T20:19:30.379Z,101148.47
2023-04-06T20:21:57.781Z,101155.56
2023-04-06T20:24:24.521Z,101152.81
2023-04-06T20:26:51.176Z,101180.69
2023-04-06T20:29:17.848Z,101187.91
2023-04-06T20:31:44.433Z,101168.09
2023-04-06T20:34:11.100Z,101169.91
2023-04-06T20:36:37.977Z,101191.50
2023-04-06T20:39:04.631Z,101157.44
2023-04-06T20:41:31.166Z,101179.97
2023-04-06T20:43:58.172Z,101163.06
2023-04-06T20:46:25.232Z,101157.69
2023-04-06T20:48:52.893Z,101168.53
2023-04-06T20:51:23.047Z,101107.75
2023-04-06T20:53:49.657Z,101153.53
2023-04-06T20:56:16.201Z,101167.94
2023-04-06T20:58:42.854Z,101177.06
2023-04-06T21:01:14.956Z,101169.91
2023-04-06T21:03:43.061Z,101109.13
2023-04-06T21:06:11.292Z,101102.88
2023-04-06T21:08:38.115Z,101048.44
2023-04-06T21:11:05.117Z,101165.81
2023-04-06T21:13:32.462Z,101151.41
2023-04-06T21:15:59.667Z,101164.09
2023-04-06T21:18:26.484Z,101149.75
2023-04-06T21:20:53.151Z,101031.72
2023-04-06T21:23:19.826Z,101146.47
2023-04-06T21:25:46.497Z,101160.66
2023-04-06T21:28:13.098Z,101147.41
2023-04-06T21:30:39.911Z,101132.31
2023-04-06T21:33:07.490Z,101132.31
2023-04-06T21:35:38.456Z,101160.16
2023-04-06T21:38:05.011Z,101154.84
2023-04-06T21:40:31.574Z,101173.66
2023-04-06T21:42:58.123Z,101161.22
2023-04-06T21:45:25.113Z,101165.81
2023-04-06T21:47:52.864Z,101159.47
2023-04-06T21:50:19.496Z,101163.06
2023-04-06T21:52:47.143Z,101165.84
2023-04-06T21:55:13.840Z,101149.09
2023-04-06T21:57:40.597Z,101158.09
2023-04-06T22:00:09.878Z,101170.69
2023-04-06T22:02:42.166Z,101101.94
2023-04-06T22:05:09.431Z,101144.00
2023-04-06T22:07:36.138Z,101151.16
2023-04-06T22:10:02.874Z,101163.75
2023-04-06T22:12:29.465Z,101163.84
2023-04-06T22:14:56.073Z,101151.47
2023-04-06T22:17:22.787Z,101185.47
2023-04-06T22:19:49.509Z,101154.25
2023-04-06T22:22:16.301Z,101151.56
2023-04-06T22:24:42.952Z,101163.25
2023-04-06T22:27:09.630Z,101137.31
2023-04-06T22:29:36.315Z,101186.63
2023-04-06T22:32:03.052Z,101175.03
2023-04-06T22:34:29.712Z,101148.00
2023-04-06T22:36:57.146Z,101103.16
2023-04-06T22:39:23.792Z,101155.09
2023-04-06T22:41:50.483Z,101114.69
2023-04-06T22:44:17.201Z,101159.38
2023-04-06T22:46:44.049Z,101179.94
2023-04-06T22:49:10.739Z,101098.44
2023-04-06T22:51:37.243Z,101169.13
2023-04-06T22:54:04.876Z,101169.09
2023-04-06T22:56:31.477Z,101060.84
2023-04-06T22:58:58.071Z,101086.88
2023-04-06T23:01:24.725Z,101178.06
2023-04-06T23:03:51.523Z,101168.22
2023-04-06T23:06:19.142Z,101085.81
2023-04-06T23:08:47.002Z,101151.16
2023-04-06T23:11:13.935Z,101168.09
2023-04-06T23:13:40.596Z,101185.13
2023-04-06T23:16:09.175Z,101097.44
2023-04-06T23:18:35.774Z,101155.50
2023-04-06T23:21:02.849Z,101172.44
2023-04-06T23:23:29.463Z,101195.66
2023-04-06T23:25:56.280Z,101179.59
2023-04-06T23:28:22.990Z,101173.00
2023-04-06T23:30:49.659Z,101197.38
2023-04-06T23:33:16.344Z,101182.00
2023-04-06T23:35:42.995Z,101174.81
2023-04-06T23:38:09.652Z,101200.75
2023-04-06T23:40:39.423Z,101129.91
2023-04-06T23:43:06.253Z,101196.94
2023-04-06T23:45:33.105Z,101187.13
2023-04-06T23:47:59.830Z,101186.03
2023-04-06T23:50:26.525Z,101190.44
2023-04-06T23:52:53.148Z,101177.84
2023-04-06T23:55:19.778Z,101170.59
2023-04-06T23:57:46.309Z,101192.91
